Time;durP1;ratioP1;P1;durP2;ratioP2;P2;SDS_P1;SDS_P2;PMS_P1;PMS_P2;Temp;Humidity;BMP_temperature;BMP_pressure;BME280_temperature;BME280_humidity;BME280_pressure;Samples;Min_cycle;Max_cycle;Signal;HPM_P1;HPM_P2
2023/05/21 00:02:03;;;;;;;20.13;15.77;;;;;;;13.78;100.00;98259.84;4924905;28;20234;-64
2023/05/21 00:04:36;;;;;;;17.90;14.50;;;;;;;13.76;100.00;98265.28;4928361;29;20227;-64
2023/05/21 00:07:03;;;;;;;21.70;15.43;;;;;;;13.75;100.00;98249.72;4925692;28;20232;-64
2023/05/21 00:09:36;;;;;;;22.80;15.20;;;;;;;13.78;100.00;98246.75;4927824;29;20225;-64
2023/05/21 00:12:04;;;;;;;22.93;15.40;;;;;;;13.83;100.00;98252.22;4924838;28;20266;-64
2023/05/21 00:14:36;;;;;;;20.90;14.93;;;;;;;13.82;100.00;98253.22;4928016;29;20230;-64
2023/05/21 00:17:03;;;;;;;23.00;15.43;;;;;;;13.81;100.00;98246.34;4925251;28;20226;-64
2023/05/21 00:19:36;;;;;;;19.53;15.47;;;;;;;13.88;100.00;98242.84;4927781;29;20320;-64
2023/05/21 00:22:03;;;;;;;19.10;14.93;;;;;;;13.82;100.00;98240.13;4925164;28;20241;-64
2023/05/21 00:24:34;;;;;;;19.97;15.67;;;;;;;13.87;100.00;98245.63;4927685;29;20233;-64
2023/05/21 00:27:01;;;;;;;24.67;15.90;;;;;;;13.87;100.00;98235.13;4924499;28;20249;-64
2023/05/21 00:29:53;;;;;;;19.80;14.60;;;;;;;13.87;100.00;98233.34;4925095;29;20279;-64
2023/05/21 00:32:20;;;;;;;17.57;13.80;;;;;;;13.88;100.00;98227.09;4908159;29;20255;-64
2023/05/21 00:34:48;;;;;;;21.03;15.90;;;;;;;13.91;100.00;98218.03;4909482;29;20239;-64
2023/05/21 00:37:17;;;;;;;22.43;15.87;;;;;;;13.93;100.00;98221.28;4902376;28;20237;-64
2023/05/21 00:39:44;;;;;;;20.77;15.07;;;;;;;13.93;100.00;98225.75;4910516;29;20238;-64
2023/05/21 00:42:11;;;;;;;22.50;16.00;;;;;;;13.91;100.00;98223.28;4914848;28;20331;-64
2023/05/21 00:44:38;;;;;;;18.27;15.43;;;;;;;13.90;100.00;98215.59;4902001;29;20268;-64
2023/05/21 00:47:05;;;;;;;22.20;15.30;;;;;;;13.93;100.00;98215.25;4907575;28;20229;-65
2023/05/21 00:49:34;;;;;;;23.77;16.57;;;;;;;14.00;100.00;98205.66;4927871;29;20257;-65
2023/05/21 00:52:02;;;;;;;19.00;15.40;;;;;;;14.02;100.00;98212.31;4924555;28;20628;-65
2023/05/21 00:54:34;;;;;;;21.00;16.20;;;;;;;13.99;100.00;98202.19;4900184;29;20223;-65
2023/05/21 00:57:05;;;;;;;18.37;14.80;;;;;;;13.96;100.00;98201.75;4907017;28;20293;-65
2023/05/21 00:59:34;;;;;;;19.37;15.13;;;;;;;13.94;100.00;98198.50;4912966;29;20332;-65
2023/05/21 01:02:04;;;;;;;17.80;14.47;;;;;;;13.90;100.00;98199.88;4908596;28;20289;-65
2023/05/21 01:04:35;;;;;;;21.23;15.13;;;;;;;13.85;100.00;98197.78;4902347;29;20223;-65
2023/05/21 01:07:05;;;;;;;18.60;14.60;;;;;;;13.84;100.00;98198.78;4907107;28;20256;-65
2023/05/21 01:09:34;;;;;;;26.90;17.37;;;;;;;13.86;100.00;98200.22;4927545;29;20296;-65
2023/05/21 01:12:02;;;;;;;20.13;15.43;;;;;;;13.84;100.00;98196.97;4914010;28;20276;-65
2023/05/21 01:14:36;;;;;;;23.07;17.33;;;;;;;13.92;100.00;98193.44;4926554;29;20314;-65
2023/05/21 01:17:05;;;;;;;24.77;16.27;;;;;;;14.12;100.00;98192.84;4897295;28;20261;-65
2023/05/21 01:19:34;;;;;;;21.93;16.23;;;;;;;14.24;100.00;98193.22;4921383;29;20237;-65
2023/05/21 01:22:06;;;;;;;22.73;17.33;;;;;;;14.29;100.00;98198.72;4915323;28;20238;-65
2023/05/21 01:24:37;;;;;;;20.83;17.20;;;;;;;14.24;100.00;98198.47;4902126;29;20241;-65
2023/05/21 01:27:09;;;;;;;20.93;15.37;;;;;;;14.16;100.00;98197.56;4897746;28;20240;-65
2023/05/21 01:29:36;;;;;;;20.10;16.17;;;;;;;14.05;100.00;98203.28;4903405;29;20231;-65
2023/05/21 01:32:09;;;;;;;24.37;17.43;;;;;;;13.98;100.00;98195.31;4924257;28;20763;-65
2023/05/21 01:34:41;;;;;;;19.63;15.27;;;;;;;13.94;100.00;98194.06;4927648;29;20237;-65
2023/05/21 01:37:16;;;;;;;22.27;15.33;;;;;;;13.89;100.00;98191.16;4907043;28;20227;-65
2023/05/21 01:39:52;;;;;;;20.93;15.47;;;;;;;13.88;100.00;98186.91;4916751;29;20240;-65
2023/05/21 01:42:21;;;;;;;21.20;16.53;;;;;;;13.96;100.00;98186.00;4924657;28;20752;-65
2023/05/21 01:44:51;;;;;;;21.93;16.60;;;;;;;13.93;100.00;98184.56;4927050;29;20233;-65
2023/05/21 01:47:20;;;;;;;20.83;16.57;;;;;;;13.86;100.00;98186.28;4908502;29;20240;-65
2023/05/21 01:49:47;;;;;;;20.67;16.23;;;;;;;13.79;100.00;98185.38;4910138;29;20247;-65
2023/05/21 01:52:13;;;;;;;21.77;16.10;;;;;;;13.73;100.00;98176.44;4911712;28;20230;-65
2023/05/21 01:54:40;;;;;;;23.10;16.50;;;;;;;13.69;100.00;98177.81;4909758;29;20241;-65
2023/05/21 01:57:08;;;;;;;21.40;16.00;;;;;;;13.58;100.00;98182.50;4904092;28;20244;-65
2023/05/21 01:59:35;;;;;;;21.37;15.80;;;;;;;13.52;100.00;98179.81;4924461;29;20760;-65
2023/05/21 02:02:02;;;;;;;22.03;16.63;;;;;;;13.45;100.00;98177.09;4903645;28;20232;-63
2023/05/21 02:04:34;;;;;;;24.67;16.77;;;;;;;13.31;100.00;98183.94;4925261;29;20244;-63
2023/05/21 02:07:05;;;;;;;19.97;16.20;;;;;;;13.23;100.00;98173.53;4908524;28;20259;-65
2023/05/21 02:09:34;;;;;;;20.77;16.37;;;;;;;13.10;100.00;98180.19;4909294;29;20229;-63
2023/05/21 02:12:01;;;;;;;25.80;16.47;;;;;;;13.05;100.00;98185.16;4911527;28;20245;-63
2023/05/21 02:14:55;;;;;;;24.47;15.87;;;;;;;12.98;100.00;98178.97;4923942;29;20246;-63
2023/05/21 02:17:23;;;;;;;20.80;16.27;;;;;;;12.93;100.00;98179.53;4926234;28;20261;-63
2023/05/21 02:19:50;;;;;;;21.73;16.57;;;;;;;12.89;100.00;98174.81;4928442;29;20249;-63
2023/05/21 02:22:16;;;;;;;21.57;16.10;;;;;;;12.92;100.00;98174.44;4918828;28;21147;-63
2023/05/21 02:24:44;;;;;;;20.83;16.10;;;;;;;12.87;100.00;98175.00;4929806;29;20229;-65
2023/05/21 02:27:12;;;;;;;21.20;16.97;;;;;;;12.83;100.00;98173.72;4909899;28;20269;-63
2023/05/21 02:29:39;;;;;;;21.93;15.10;;;;;;;12.84;100.00;98180.59;4920188;29;20241;-63
2023/05/21 02:32:10;;;;;;;18.67;14.93;;;;;;;12.79;100.00;98172.44;4909472;28;20241;-63
2023/05/21 02:34:41;;;;;;;22.70;14.90;;;;;;;12.85;100.00;98174.34;4930215;29;20287;-63
2023/05/21 02:37:08;;;;;;;21.10;16.17;;;;;;;12.81;100.00;98176.50;4927368;28;20229;-64
2023/05/21 02:39:35;;;;;;;21.57;16.27;;;;;;;12.78;100.00;98176.84;4930276;29;20238;-64
2023/05/21 02:42:02;;;;;;;23.87;16.47;;;;;;;12.77;100.00;98175.22;4901168;28;20245;-64
2023/05/21 02:44:40;;;;;;;22.63;16.20;;;;;;;12.78;100.00;98173.44;4905165;29;20801;-63
2023/05/21 02:47:09;;;;;;;18.50;15.10;;;;;;;12.67;100.00;98178.09;4907806;28;20243;-63
2023/05/21 02:49:37;;;;;;;19.83;15.33;;;;;;;12.60;100.00;98171.91;4930263;29;20232;-63
2023/05/21 02:52:04;;;;;;;21.93;15.30;;;;;;;12.60;100.00;98176.38;4927004;28;20237;-63
2023/05/21 02:54:34;;;;;;;22.07;15.43;;;;;;;12.55;100.00;98176.88;4906423;29;20278;-63
2023/05/21 02:57:01;;;;;;;22.37;15.93;;;;;;;12.50;100.00;98181.81;4910563;28;20226;-64
2023/05/21 02:59:53;;;;;;;22.73;16.83;;;;;;;12.44;100.00;98175.47;4928465;29;20243;-64
2023/05/21 03:02:19;;;;;;;22.57;16.07;;;;;;;12.42;100.00;98184.47;4913854;29;20651;-64
2023/05/21 03:04:50;;;;;;;25.40;17.93;;;;;;;12.46;100.00;98189.22;4912023;29;20756;-64
2023/05/21 03:07:18;;;;;;;23.20;17.27;;;;;;;12.45;100.00;98182.34;4925586;28;20707;-64
2023/05/21 03:09:45;;;;;;;23.30;17.70;;;;;;;12.39;100.00;98186.47;4904882;29;20250;-64
2023/05/21 03:12:12;;;;;;;27.10;18.90;;;;;;;12.37;100.00;98188.44;4903454;28;20324;-64
2023/05/21 03:14:39;;;;;;;25.50;17.27;;;;;;;12.39;100.00;98180.41;4928814;29;20233;-63
2023/05/21 03:17:05;;;;;;;24.87;17.97;;;;;;;12.35;100.00;98187.78;4918975;28;20944;-63
2023/05/21 03:19:35;;;;;;;23.40;17.70;;;;;;;12.30;100.00;98189.31;4911457;29;20234;-65
2023/05/21 03:22:04;;;;;;;27.83;19.13;;;;;;;12.35;100.00;98187.00;4925061;28;20243;-63
2023/05/21 03:24:38;;;;;;;23.43;18.00;;;;;;;12.35;100.00;98181.75;4903251;29;20240;-63
2023/05/21 03:27:06;;;;;;;25.60;18.23;;;;;;;12.29;100.00;98180.63;4901942;28;20239;-63
2023/05/21 03:29:35;;;;;;;22.20;17.73;;;;;;;12.27;100.00;98193.06;4928752;29;20233;-63
2023/05/21 03:32:03;;;;;;;24.87;17.53;;;;;;;12.24;100.00;98196.84;5121013;23;20258;-65
2023/05/21 03:34:36;;;;;;;23.73;17.97;;;;;;;12.21;100.00;98202.44;4927754;29;20228;-65
2023/05/21 03:37:05;;;;;;;23.67;17.97;;;;;;;12.19;100.00;98199.19;4908792;29;20998;-63
2023/05/21 03:39:35;;;;;;;32.43;18.77;;;;;;;12.11;100.00;98188.75;4927966;29;20233;-63
2023/05/21 03:42:05;;;;;;;24.63;18.80;;;;;;;12.05;100.00;98198.13;4926302;29;20236;-63
2023/05/21 03:44:43;;;;;;;25.10;18.70;;;;;;;12.04;100.00;98195.66;4904377;29;20243;-63
2023/05/21 03:47:36;;;;;;;28.57;19.30;;;;;;;11.99;100.00;98203.16;4922881;29;20252;-63
2023/05/21 03:50:08;;;;;;;24.73;17.87;;;;;;;11.95;100.00;98194.84;4908764;29;20224;-63
2023/05/21 03:52:36;;;;;;;23.70;17.73;;;;;;;11.92;100.00;98203.84;4913571;29;21222;-63
2023/05/21 03:55:03;;;;;;;23.63;17.97;;;;;;;11.95;100.00;98210.56;4907439;29;20713;-63
2023/05/21 03:57:29;;;;;;;23.73;18.13;;;;;;;11.93;100.00;98210.69;4911115;29;20235;-63
2023/05/21 03:59:57;;;;;;;22.80;17.50;;;;;;;11.95;100.00;98210.56;4901118;29;20605;-63
2023/05/21 04:02:25;;;;;;;23.37;17.83;;;;;;;11.93;100.00;98218.53;4911537;29;20235;-63
2023/05/21 04:04:54;;;;;;;24.13;17.77;;;;;;;11.95;100.00;98202.69;4897034;29;20237;-63
2023/05/21 04:07:21;;;;;;;25.20;17.60;;;;;;;12.00;100.00;98218.72;4910486;29;20596;-63
2023/05/21 04:09:49;;;;;;;25.47;16.77;;;;;;;12.02;100.00;98222.00;4928409;29;20244;-63
2023/05/21 04:12:16;;;;;;;25.13;18.13;;;;;;;12.08;100.00;98223.94;4923776;28;20235;-63
2023/05/21 04:14:43;;;;;;;25.03;17.97;;;;;;;12.12;100.00;98215.75;4900488;29;20239;-63
2023/05/21 04:17:11;;;;;;;20.63;15.67;;;;;;;12.16;100.00;98220.44;4913942;29;20705;-63
2023/05/21 04:19:39;;;;;;;25.97;18.60;;;;;;;12.20;100.00;98226.13;4910543;29;20699;-63
2023/05/21 04:22:06;;;;;;;20.70;16.33;;;;;;;12.27;100.00;98231.53;4924295;28;20259;-63
2023/05/21 04:24:36;;;;;;;29.07;18.07;;;;;;;12.31;100.00;98232.81;4926775;29;20221;-63
2023/05/21 04:27:27;;;;;;;22.13;16.33;;;;;;;12.36;100.00;98238.34;4925639;29;20240;-63
2023/05/21 04:29:54;;;;;;;21.30;16.17;;;;;;;12.42;100.00;98236.84;4925441;29;20570;-63
2023/05/21 04:32:22;;;;;;;21.70;16.33;;;;;;;12.48;100.00;98244.81;4902035;29;20320;-63
2023/05/21 04:34:49;;;;;;;22.43;16.97;;;;;;;12.54;100.00;98246.75;4928287;29;20231;-63
2023/05/21 04:37:17;;;;;;;23.47;17.20;;;;;;;12.62;100.00;98245.88;4924778;29;20229;-63
2023/05/21 04:39:44;;;;;;;23.50;17.07;;;;;;;12.72;100.00;98245.63;4910420;29;20328;-63
2023/05/21 04:42:10;;;;;;;22.77;17.60;;;;;;;12.75;100.00;98255.75;4897819;29;20242;-63
2023/05/21 04:44:40;;;;;;;21.80;16.43;;;;;;;12.79;100.00;98256.25;4926253;29;20236;-63
2023/05/21 04:47:07;;;;;;;26.60;17.40;;;;;;;12.84;100.00;98257.34;4920749;28;20232;-63
2023/05/21 04:49:36;;;;;;;22.93;17.47;;;;;;;12.95;100.00;98260.53;4926784;29;20220;-63
2023/05/21 04:52:02;;;;;;;23.83;16.90;;;;;;;13.05;100.00;98262.94;4915710;29;20592;-63
2023/05/21 04:54:35;;;;;;;23.70;17.60;;;;;;;13.13;100.00;98266.31;4905071;29;20244;-63
2023/05/21 04:57:01;;;;;;;21.00;16.70;;;;;;;13.22;100.00;98258.38;4924792;29;20310;-63
2023/05/21 04:59:55;;;;;;;21.70;16.97;;;;;;;13.29;100.00;98262.72;4924473;29;20241;-63
2023/05/21 05:02:21;;;;;;;23.37;17.13;;;;;;;13.39;100.00;98259.88;4903967;29;20792;-63
2023/05/21 05:04:48;;;;;;;22.00;16.07;;;;;;;13.43;100.00;98265.59;4916713;29;20264;-63
2023/05/21 05:07:15;;;;;;;23.63;17.10;;;;;;;13.45;100.00;98268.84;4925303;29;20245;-64
2023/05/21 05:09:42;;;;;;;22.63;17.10;;;;;;;13.53;100.00;98260.91;4913629;29;20234;-64
2023/05/21 05:12:08;;;;;;;21.43;16.70;;;;;;;13.64;100.00;98264.09;4907593;29;20698;-64
2023/05/21 05:14:35;;;;;;;22.20;17.30;;;;;;;13.70;100.00;98269.44;4909998;29;20257;-64
2023/05/21 05:17:03;;;;;;;20.97;16.33;;;;;;;13.78;100.00;98262.47;4898836;29;20571;-64
2023/05/21 05:19:35;;;;;;;22.07;16.77;;;;;;;13.88;100.00;98257.75;4925375;29;20264;-64
2023/05/21 05:22:02;;;;;;;21.70;17.07;;;;;;;13.99;100.00;98261.75;4907455;29;20276;-64
2023/05/21 05:24:35;;;;;;;20.07;16.47;;;;;;;14.10;100.00;98257.84;4905003;29;20721;-64
2023/05/21 05:27:02;;;;;;;20.53;17.10;;;;;;;14.16;100.00;98263.19;4897033;29;20248;-64
2023/05/21 05:29:34;;;;;;;19.37;15.57;;;;;;;14.29;100.00;98257.28;4914518;29;20240;-64
2023/05/21 05:32:02;;;;;;;21.30;15.50;;;;;;;14.41;100.00;98257.59;4922389;28;20313;-64
2023/05/21 05:34:34;;;;;;;24.20;17.17;;;;;;;14.52;100.00;98258.94;4926709;29;20757;-64
2023/05/21 05:37:01;;;;;;;22.50;16.87;;;;;;;14.60;100.00;98258.84;4912001;29;20233;-64
2023/05/21 05:39:34;;;;;;;24.63;17.90;;;;;;;14.65;100.00;98260.09;4898636;29;20571;-64
2023/05/21 05:42:02;;;;;;;21.20;17.17;;;;;;;14.75;100.00;98255.38;4913746;29;20308;-64
2023/05/21 05:44:53;;;;;;;22.37;16.27;;;;;;;14.84;100.00;98253.44;4923747;29;20571;-64
2023/05/21 05:47:21;;;;;;;23.13;18.13;;;;;;;14.90;100.00;98257.94;4918410;29;20257;-64
2023/05/21 05:49:48;;;;;;;25.67;18.43;;;;;;;15.02;100.00;98260.88;4925843;29;20237;-64
2023/05/21 05:52:14;;;;;;;22.03;16.57;;;;;;;15.17;100.00;98252.91;4908690;29;20245;-64
2023/05/21 05:54:41;;;;;;;23.07;17.63;;;;;;;15.24;100.00;98256.41;4904238;29;20233;-64
2023/05/21 05:57:08;;;;;;;23.53;16.40;;;;;;;15.37;100.00;98255.69;4910960;29;20230;-64
2023/05/21 05:59:36;;;;;;;18.30;15.50;;;;;;;15.49;100.00;98256.81;4914012;29;20320;-64
2023/05/21 06:02:04;;;;;;;23.57;17.07;;;;;;;15.64;100.00;98253.25;4901576;29;20235;-64
2023/05/21 06:04:35;;;;;;;24.10;17.07;;;;;;;15.75;100.00;98257.97;4906154;29;20786;-64
2023/05/21 06:07:02;;;;;;;21.10;16.07;;;;;;;15.91;100.00;98258.69;4899900;29;20239;-64
2023/05/21 06:09:35;;;;;;;24.93;17.37;;;;;;;16.01;99.95;98263.59;4928979;29;20233;-64
2023/05/21 06:12:01;;;;;;;21.70;17.27;;;;;;;16.08;98.25;98261.81;4910483;29;20238;-64
2023/05/21 06:14:53;;;;;;;22.50;16.37;;;;;;;16.11;98.01;98257.97;4922985;29;20244;-64
2023/05/21 06:17:20;;;;;;;20.60;16.13;;;;;;;16.16;96.74;98261.66;4927918;29;20683;-64
2023/05/21 06:19:48;;;;;;;22.83;17.33;;;;;;;16.17;96.30;98263.28;4928740;29;20593;-64
2023/05/21 06:22:15;;;;;;;20.93;16.23;;;;;;;16.36;96.82;98264.38;4900921;29;20612;-64
2023/05/21 06:24:43;;;;;;;18.53;14.70;;;;;;;16.59;96.67;98260.59;4913218;29;20223;-64
2023/05/21 06:27:10;;;;;;;18.93;15.60;;;;;;;16.76;93.38;98253.13;4903194;29;20249;-64
2023/05/21 06:29:39;;;;;;;20.70;16.67;;;;;;;16.78;93.02;98259.00;4918215;29;20238;-64
2023/05/21 06:32:08;;;;;;;19.83;15.83;;;;;;;16.99;92.61;98254.59;4925817;29;20266;-64
2023/05/21 06:34:35;;;;;;;19.80;15.40;;;;;;;17.14;91.29;98256.22;4911723;29;20695;-64
2023/05/21 06:37:03;;;;;;;19.73;15.83;;;;;;;17.40;90.85;98253.59;4908935;29;20224;-64
2023/05/21 06:39:34;;;;;;;23.73;16.47;;;;;;;17.63;88.94;98262.09;4890650;29;21096;-64
2023/05/21 06:42:01;;;;;;;23.80;18.73;;;;;;;17.82;87.91;98250.69;4900258;29;20231;-64
2023/05/21 06:44:52;;;;;;;21.27;16.73;;;;;;;17.85;84.88;98258.19;4909626;29;20283;-64
2023/05/21 06:47:36;;;;;;;24.03;17.43;;;;;;;17.63;85.68;98251.53;4928605;28;20251;-64
2023/05/21 06:50:03;;;;;;;24.77;18.03;;;;;;;17.59;85.46;98259.03;4899828;29;20599;-64
2023/05/21 06:52:32;;;;;;;24.93;18.53;;;;;;;17.42;86.79;98263.94;4928662;28;20245;-64
2023/05/21 06:55:01;;;;;;;23.77;18.40;;;;;;;17.41;87.29;98268.41;4918240;29;20235;-64
2023/05/21 06:57:34;;;;;;;28.10;18.43;;;;;;;17.19;87.81;98264.34;4912353;29;20235;-64
2023/05/21 07:00:01;;;;;;;25.87;19.97;;;;;;;16.82;92.12;98273.41;4924617;29;20234;-64
2023/05/21 07:02:27;;;;;;;24.50;19.83;;;;;;;17.04;91.71;98277.72;4911968;29;20586;-64
2023/05/21 07:04:54;;;;;;;25.03;18.83;;;;;;;17.26;90.71;98273.06;4907661;29;20254;-64
2023/05/21 07:07:21;;;;;;;25.97;19.23;;;;;;;16.77;94.05;98275.03;4910435;29;20247;-64
2023/05/21 07:09:49;;;;;;;26.20;19.20;;;;;;;17.01;92.63;98280.75;4903789;29;20348;-64
2023/05/21 07:12:16;;;;;;;24.40;18.43;;;;;;;17.09;90.58;98275.28;4900711;29;20235;-64
2023/05/21 07:14:43;;;;;;;23.93;18.17;;;;;;;17.19;90.34;98280.97;4903660;29;20315;-64
2023/05/21 07:17:10;;;;;;;26.40;20.33;;;;;;;16.81;92.22;98284.16;4925275;28;20632;-64
2023/05/21 07:19:37;;;;;;;28.23;20.83;;;;;;;17.00;90.87;98287.03;4916926;29;20223;-64
2023/05/21 07:22:05;;;;;;;32.20;20.73;;;;;;;16.84;91.41;98289.03;4899044;29;20242;-64
2023/05/21 07:24:34;;;;;;;28.67;20.00;;;;;;;17.04;90.16;98285.63;4911625;29;20231;-64
2023/05/21 07:27:02;;;;;;;27.00;21.37;;;;;;;17.08;90.96;98290.31;4909403;29;20243;-64
2023/05/21 07:29:34;;;;;;;28.20;20.70;;;;;;;17.34;89.78;98286.06;4909535;29;20234;-64
2023/05/21 07:32:02;;;;;;;26.73;19.80;;;;;;;17.52;89.60;98290.72;4926212;29;20588;-64
2023/05/21 07:34:35;;;;;;;28.70;20.47;;;;;;;17.78;86.95;98278.50;4903443;29;20230;-64
2023/05/21 07:37:02;;;;;;;26.87;20.53;;;;;;;17.89;84.92;98286.81;4901131;29;20580;-64
2023/05/21 07:39:35;;;;;;;30.53;20.67;;;;;;;17.75;85.23;98281.56;4911260;29;20243;-64
2023/05/21 07:42:03;;;;;;;26.07;19.30;;;;;;;17.89;84.25;98284.97;4924622;28;20256;-64
2023/05/21 07:44:34;;;;;;;24.60;18.67;;;;;;;17.96;83.96;98277.84;4928975;29;20587;-64
2023/05/21 07:47:02;;;;;;;26.97;18.03;;;;;;;18.16;83.24;98277.00;4912079;29;20264;-64
2023/05/21 07:49:34;;;;;;;25.73;18.63;;;;;;;18.07;85.15;98271.13;4903885;29;20294;-64
2023/05/21 07:52:01;;;;;;;23.57;18.43;;;;;;;18.11;83.86;98268.91;4908475;29;20628;-64
2023/05/21 07:54:34;;;;;;;32.50;18.60;;;;;;;18.43;83.57;98272.41;4911247;29;20750;-64
2023/05/21 07:57:03;;;;;;;24.30;19.00;;;;;;;18.38;82.23;98271.44;4888967;28;20300;-64
2023/05/21 07:59:50;;;;;;;24.20;18.30;;;;;;;18.44;82.34;98271.41;4901694;29;20227;-64
2023/05/21 08:02:17;;;;;;;26.20;17.73;;;;;;;18.79;81.37;98278.13;4924831;29;20244;-65
2023/05/21 08:04:44;;;;;;;22.57;18.13;;;;;;;18.76;80.82;98275.91;4911461;29;20257;-64
2023/05/21 08:07:12;;;;;;;27.67;18.50;;;;;;;18.63;82.92;98276.78;4924385;28;20752;-65
2023/05/21 08:09:39;;;;;;;26.03;19.23;;;;;;;18.83;79.74;98281.16;4926800;29;20298;-65
2023/05/21 08:12:13;;;;;;;25.83;18.97;;;;;;;18.76;80.36;98283.84;4906512;29;20241;-65
2023/05/21 08:14:40;;;;;;;27.27;19.23;;;;;;;19.05;79.55;98284.28;4926323;29;20725;-65
2023/05/21 08:17:09;;;;;;;25.50;19.30;;;;;;;18.79;80.40;98282.63;4924031;28;20238;-65
2023/05/21 08:19:36;;;;;;;24.47;19.27;;;;;;;19.26;79.09;98277.03;4911375;29;20235;-65
2023/05/21 08:22:05;;;;;;;29.67;18.53;;;;;;;19.44;79.66;98281.53;4899112;29;20308;-65
2023/05/21 08:24:37;;;;;;;27.30;19.70;;;;;;;19.55;77.01;98274.75;4911029;29;20696;-65
2023/05/21 08:27:04;;;;;;;21.87;17.57;;;;;;;19.83;76.55;98282.22;4923893;28;20258;-65
2023/05/21 08:29:36;;;;;;;27.27;20.40;;;;;;;19.85;77.39;98281.97;4910905;29;20247;-65
2023/05/21 08:32:05;;;;;;;27.67;19.67;;;;;;;20.04;75.94;98282.84;4917348;29;20235;-65
2023/05/21 08:34:35;;;;;;;25.60;18.93;;;;;;;20.12;76.31;98277.25;4927070;29;20240;-65
2023/05/21 08:37:17;;;;;;;22.77;18.20;;;;;;;20.39;75.90;98278.75;4903784;29;20589;-65
2023/05/21 08:40:05;;;;;;;25.77;19.20;;;;;;;20.13;75.12;98281.50;4924814;29;20223;-65
2023/05/21 08:42:42;;;;;;;24.33;19.47;;;;;;;20.39;72.28;98284.06;4910377;29;20732;-65
2023/05/21 08:45:22;;;;;;;24.83;17.83;;;;;;;20.43;74.51;98286.03;4898511;29;20283;-65
2023/05/21 08:47:55;;;;;;;24.10;17.33;;;;;;;20.60;74.57;98275.63;4906839;29;20634;-65
2023/05/21 08:50:25;;;;;;;23.00;18.40;;;;;;;20.79;72.91;98281.72;4899236;29;20233;-65
2023/05/21 08:52:55;;;;;;;28.67;20.00;;;;;;;20.43;74.11;98278.06;4916759;29;20235;-65
2023/05/21 08:55:22;;;;;;;29.40;19.53;;;;;;;20.28;73.21;98280.31;4910817;29;20234;-65
2023/05/21 08:57:49;;;;;;;23.57;18.60;;;;;;;20.17;76.94;98285.31;4910057;29;20913;-65
2023/05/21 09:00:19;;;;;;;27.30;19.47;;;;;;;20.35;74.03;98281.84;4905954;29;20247;-65
2023/05/21 09:02:47;;;;;;;26.13;17.80;;;;;;;20.76;73.44;98289.25;4910539;29;20303;-65
2023/05/21 09:05:17;;;;;;;22.20;17.37;;;;;;;20.89;73.79;98294.41;4923293;29;20324;-65
2023/05/21 09:07:50;;;;;;;23.40;17.87;;;;;;;21.05;72.47;98292.16;4910656;29;20324;-65
2023/05/21 09:10:52;;;;;;;20.00;16.53;;;;;;;21.16;72.38;98295.88;4917582;29;20242;-65
2023/05/21 09:13:26;;;;;;;22.30;18.00;;;;;;;21.18;72.23;98294.59;4909679;29;20229;-65
2023/05/21 09:15:54;;;;;;;24.20;18.47;;;;;;;21.33;70.35;98290.69;4907739;29;20363;-65
2023/05/21 09:18:23;;;;;;;27.00;19.43;;;;;;;21.24;71.75;98290.22;4901656;29;20234;-65
2023/05/21 09:20:55;;;;;;;24.73;18.33;;;;;;;21.55;71.20;98293.59;4907222;29;20324;-65
2023/05/21 09:23:22;;;;;;;24.83;18.03;;;;;;;21.55;70.68;98288.28;4900821;29;20345;-65
2023/05/21 09:25:50;;;;;;;23.87;17.47;;;;;;;21.83;69.10;98292.91;4925365;28;20230;-65
2023/05/21 09:28:29;;;;;;;20.33;17.37;;;;;;;22.31;69.16;98292.84;4911559;29;20241;-65
2023/05/21 09:31:03;;;;;;;25.07;18.67;;;;;;;22.21;67.90;98293.44;4910937;29;20230;-65
2023/05/21 09:33:30;;;;;;;21.67;17.90;;;;;;;22.54;67.04;98291.97;4930355;29;20289;-65
2023/05/21 09:35:57;;;;;;;19.77;16.50;;;;;;;22.53;65.89;98297.53;4917492;29;20241;-65
2023/05/21 09:38:25;;;;;;;20.80;16.60;;;;;;;22.42;66.62;98296.50;4906413;29;20243;-65
2023/05/21 09:40:54;;;;;;;27.40;18.80;;;;;;;22.36;66.13;98297.44;4912291;29;20238;-65
2023/05/21 09:43:22;;;;;;;22.77;18.83;;;;;;;22.12;67.01;98294.84;4920197;29;20234;-65
2023/05/21 09:45:53;;;;;;;21.83;16.07;;;;;;;22.18;67.91;98287.78;4904628;29;20239;-65
2023/05/21 09:48:35;;;;;;;20.47;16.37;;;;;;;22.26;69.26;98282.88;4911147;29;20246;-65
2023/05/21 09:51:10;;;;;;;21.30;17.17;;;;;;;22.25;69.46;98288.47;4910218;29;20235;-65
2023/05/21 09:53:42;;;;;;;24.63;17.70;;;;;;;22.52;66.37;98293.25;4930713;29;20232;-65
2023/05/21 09:56:09;;;;;;;23.90;16.90;;;;;;;22.16;68.12;98288.03;4928133;29;20241;-65
2023/05/21 09:58:36;;;;;;;26.80;18.40;;;;;;;21.78;71.77;98289.34;4929903;29;20239;-65
2023/05/21 10:01:02;;;;;;;20.07;15.97;;;;;;;22.12;70.68;98282.34;4927940;29;20260;-65
2023/05/21 10:03:31;;;;;;;23.03;17.07;;;;;;;21.92;70.67;98277.44;4921250;29;20602;-65
2023/05/21 10:06:00;;;;;;;19.37;15.57;;;;;;;22.21;71.16;98277.50;4927895;29;20234;-65
2023/05/21 10:08:32;;;;;;;20.73;16.30;;;;;;;22.65;66.52;98279.69;4930742;29;20643;-65
2023/05/21 10:11:00;;;;;;;19.67;15.43;;;;;;;22.54;69.03;98277.88;4927798;29;20247;-65
2023/05/21 10:13:27;;;;;;;21.83;16.90;;;;;;;22.47;68.66;98278.00;4930350;29;20680;-65
2023/05/21 10:16:02;;;;;;;21.43;16.00;;;;;;;22.42;67.23;98277.88;4902150;29;20705;-65
2023/05/21 10:18:30;;;;;;;19.33;15.50;;;;;;;22.66;66.79;98278.63;4930819;29;20231;-65
2023/05/21 10:21:00;;;;;;;21.03;15.27;;;;;;;22.66;67.69;98273.31;4927799;29;20754;-65
2023/05/21 10:23:27;;;;;;;18.47;15.27;;;;;;;22.92;67.31;98270.28;4929307;29;20232;-65
2023/05/21 10:25:55;;;;;;;17.63;15.10;;;;;;;23.17;64.81;98271.75;4903018;29;20233;-65
2023/05/21 10:28:23;;;;;;;18.87;15.70;;;;;;;22.98;64.56;98264.78;4930458;29;20276;-65
2023/05/21 10:30:50;;;;;;;20.73;16.37;;;;;;;22.13;68.33;98256.59;4930267;29;20243;-65
2023/05/21 10:33:17;;;;;;;19.40;14.97;;;;;;;22.46;67.45;98257.78;4927242;29;20245;-65
2023/05/21 10:35:46;;;;;;;20.13;14.67;;;;;;;22.69;66.89;98256.06;4929432;29;20708;-65
2023/05/21 10:38:16;;;;;;;22.87;15.80;;;;;;;22.77;65.63;98252.22;4925981;29;20245;-65
2023/05/21 10:40:43;;;;;;;19.07;15.57;;;;;;;23.23;66.63;98254.84;4930144;29;20234;-65
2023/05/21 10:43:25;;;;;;;19.07;15.60;;;;;;;22.71;68.59;98259.28;4926940;29;20333;-65
2023/05/21 10:46:10;;;;;;;19.80;14.90;;;;;;;23.36;66.81;98249.16;4927079;29;20382;-65
2023/05/21 10:48:54;;;;;;;16.33;14.63;;;;;;;23.52;65.26;98252.06;4927320;29;20323;-65
2023/05/21 10:51:26;;;;;;;18.50;14.53;;;;;;;23.87;62.06;98251.72;4927073;29;20245;-65
2023/05/21 10:54:18;;;;;;;22.67;15.73;;;;;;;23.43;64.25;98247.13;4926449;29;20233;-65
2023/05/21 10:56:52;;;;;;;18.93;14.67;;;;;;;23.82;65.06;98243.69;4929997;28;20233;-65
2023/05/21 10:59:32;;;;;;;19.07;14.40;;;;;;;23.81;63.27;98252.72;4919004;29;20240;-65
2023/05/21 11:02:00;;;;;;;16.83;14.03;;;;;;;23.72;65.33;98235.56;4918779;29;20248;-65
2023/05/21 11:04:27;;;;;;;16.03;13.57;;;;;;;23.84;64.81;98238.09;4929054;29;20272;-65
2023/05/21 11:06:55;;;;;;;16.97;14.70;;;;;;;23.71;63.96;98245.41;4925988;29;20638;-65
2023/05/21 11:09:23;;;;;;;16.13;13.80;;;;;;;23.71;61.38;98242.72;4929234;29;20244;-65
2023/05/21 11:11:51;;;;;;;16.40;14.50;;;;;;;23.77;63.48;98248.13;4929465;29;20233;-65
2023/05/21 11:14:33;;;;;;;17.47;14.40;;;;;;;24.03;62.07;98246.59;4909936;29;20240;-65
2023/05/21 11:17:01;;;;;;;15.97;14.10;;;;;;;24.37;61.23;98243.00;4926215;29;20249;-65
2023/05/21 11:19:36;;;;;;;18.10;14.20;;;;;;;24.06;61.82;98237.31;4929176;29;20256;-65
2023/05/21 11:22:21;;;;;;;17.90;14.70;;;;;;;23.82;61.22;98238.34;4926604;29;20236;-65
2023/05/21 11:24:50;;;;;;;20.07;14.73;;;;;;;23.73;65.50;98232.63;4929220;29;20244;-65
2023/05/21 11:27:30;;;;;;;17.30;13.63;;;;;;;23.62;62.64;98233.53;4925560;29;20253;-65